createdAt,value
2022-11-02T00:01:27.442Z,11.94
2022-11-02T00:03:57.611Z,11.81
2022-11-02T00:06:30.834Z,11.81
2022-11-02T00:09:00.977Z,11.90
2022-11-02T00:11:31.388Z,11.94
2022-11-02T00:14:01.224Z,11.92
2022-11-02T00:16:32.412Z,11.83
2022-11-02T00:19:05.105Z,11.91
2022-11-02T00:21:36.624Z,11.94
2022-11-02T00:24:08.899Z,11.99
2022-11-02T00:26:39.406Z,11.92
2022-11-02T00:29:10.183Z,11.66
2022-11-02T00:31:40.704Z,11.51
2022-11-02T00:34:10.725Z,11.40
2022-11-02T00:36:41.228Z,11.68
2022-11-02T00:39:11.390Z,11.64
2022-11-02T00:41:41.823Z,11.52
2022-11-02T00:44:12.058Z,11.52
2022-11-02T00:46:42.485Z,11.47
2022-11-02T00:49:12.480Z,11.47
2022-11-02T00:51:44.487Z,11.66
2022-11-02T00:54:17.101Z,11.65
2022-11-02T00:56:47.690Z,11.69
2022-11-02T00:59:17.803Z,11.76
2022-11-02T01:01:50.530Z,11.79
2022-11-02T01:04:20.783Z,11.77
2022-11-02T01:06:51.211Z,11.87
2022-11-02T01:09:22.903Z,11.78
2022-11-02T01:11:54.106Z,11.80
2022-11-02T01:14:24.426Z,11.80
2022-11-02T01:16:55.098Z,11.90
2022-11-02T01:19:26.525Z,11.96
2022-11-02T01:21:59.664Z,12.02
2022-11-02T01:24:30.104Z,12.23
2022-11-02T01:27:00.844Z,12.37
2022-11-02T01:29:31.126Z,12.46
2022-11-02T01:32:01.809Z,12.56
2022-11-02T01:34:32.145Z,12.58
2022-11-02T01:37:03.042Z,12.60
2022-11-02T01:39:33.369Z,12.83
2022-11-02T01:42:04.381Z,12.94
2022-11-02T01:44:36.876Z,12.90
2022-11-02T01:47:15.128Z,12.98
2022-11-02T01:49:48.540Z,12.89
2022-11-02T01:52:23.297Z,12.71
2022-11-02T01:54:59.411Z,12.79
2022-11-02T01:57:31.217Z,12.74
2022-11-02T02:00:16.350Z,12.49
2022-11-02T02:03:05.620Z,11.71
2022-11-02T02:05:42.061Z,12.00
2022-11-02T02:08:14.549Z,11.65
2022-11-02T02:10:44.957Z,11.65
2022-11-02T02:13:17.423Z,11.32
2022-11-02T02:16:23.140Z,11.35
2022-11-02T02:19:02.742Z,11.25
2022-11-02T02:22:26.587Z,11.43
2022-11-02T02:25:21.583Z,11.70
2022-11-02T02:28:27.910Z,11.69
2022-11-02T02:31:10.977Z,11.68
2022-11-02T02:33:58.487Z,11.78
2022-11-02T02:36:49.277Z,11.62
2022-11-02T02:39:29.826Z,11.40
2022-11-02T02:42:25.279Z,11.36
2022-11-02T02:45:18.426Z,11.24
2022-11-02T02:48:03.049Z,11.44
2022-11-02T02:50:49.997Z,11.52
2022-11-02T02:53:27.466Z,11.58
2022-11-02T02:56:01.437Z,11.47
2022-11-02T02:58:39.112Z,11.61
2022-11-02T03:01:15.377Z,11.48
2022-11-02T03:03:46.906Z,11.13
2022-11-02T03:06:35.742Z,11.18
2022-11-02T03:09:32.503Z,10.84
2022-11-02T03:12:47.499Z,10.76
2022-11-02T03:16:00.772Z,10.74
2022-11-02T03:18:49.088Z,10.64
2022-11-02T03:21:30.054Z,10.85
2022-11-02T03:24:11.336Z,10.67
2022-11-02T03:26:54.813Z,10.63
2022-11-02T03:30:06.095Z,10.85
2022-11-02T03:32:59.050Z,10.80
2022-11-02T03:35:47.097Z,10.62
2022-11-02T03:38:26.799Z,10.54
2022-11-02T03:40:58.246Z,10.46
2022-11-02T03:43:35.069Z,10.54
2022-11-02T03:46:10.410Z,10.33
2022-11-02T03:48:50.118Z,10.64
2022-11-02T03:51:28.441Z,10.60
2022-11-02T03:54:01.471Z,10.68
2022-11-02T03:56:35.813Z,10.56
2022-11-02T03:59:07.102Z,10.53
2022-11-02T04:01:43.455Z,10.53
2022-11-02T04:04:14.870Z,10.56
2022-11-02T04:06:49.816Z,10.59
2022-11-02T04:09:21.537Z,10.55
2022-11-02T04:12:11.054Z,10.41
2022-11-02T04:14:42.230Z,10.57
2022-11-02T04:17:37.990Z,10.52
2022-11-02T04:20:19.833Z,10.37
2022-11-02T04:23:09.353Z,10.57
2022-11-02T04:25:39.778Z,10.29
2022-11-02T04:28:17.105Z,10.45
2022-11-02T04:31:01.899Z,10.49
2022-11-02T04:33:38.046Z,10.35
2022-11-02T04:36:11.785Z,10.51
2022-11-02T04:38:43.902Z,10.60
2022-11-02T04:41:48.129Z,10.58
2022-11-02T04:44:27.829Z,10.47
2022-11-02T04:47:22.453Z,10.41
2022-11-02T04:49:53.868Z,10.41
2022-11-02T04:52:25.845Z,10.22
2022-11-02T04:54:57.300Z,10.44
2022-11-02T04:57:26.994Z,10.54
2022-11-02T04:59:58.115Z,10.33
2022-11-02T05:02:29.249Z,10.41
2022-11-02T05:05:00.759Z,10.48
2022-11-02T05:07:30.809Z,10.35
2022-11-02T05:10:01.378Z,10.49
2022-11-02T05:12:33.258Z,10.46
2022-11-02T05:15:04.519Z,10.16
2022-11-02T05:17:35.593Z,10.15
2022-11-02T05:20:06.748Z,10.00
2022-11-02T05:22:37.404Z,9.82
2022-11-02T05:25:08.014Z,9.91
2022-11-02T05:27:39.622Z,9.79
2022-11-02T05:30:11.576Z,9.73
2022-11-02T05:32:43.027Z,9.79
2022-11-02T05:35:13.539Z,9.77
2022-11-02T05:37:43.638Z,9.80
2022-11-02T05:40:15.232Z,9.74
2022-11-02T05:42:46.248Z,9.92
2022-11-02T05:45:21.974Z,10.10
2022-11-02T05:47:55.153Z,10.30
2022-11-02T05:50:25.634Z,10.61
2022-11-02T05:52:58.293Z,10.90
2022-11-02T05:55:29.257Z,10.63
2022-11-02T05:57:59.906Z,10.62
2022-11-02T06:00:30.368Z,10.82
2022-11-02T06:03:00.601Z,11.03
2022-11-02T06:05:34.016Z,11.36
2022-11-02T06:08:04.937Z,11.05
2022-11-02T06:10:35.442Z,11.34
2022-11-02T06:13:06.551Z,11.44
2022-11-02T06:15:37.322Z,11.22
2022-11-02T06:18:09.129Z,11.48
2022-11-02T06:20:39.346Z,11.36
2022-11-02T06:23:09.953Z,11.45
2022-11-02T06:25:40.597Z,11.69
2022-11-02T06:28:11.195Z,11.67
2022-11-02T06:30:41.429Z,11.94
2022-11-02T06:33:12.392Z,11.00
2022-11-02T06:36:19.841Z,11.63
2022-11-02T06:38:50.354Z,10.94
2022-11-02T06:41:20.598Z,11.37
2022-11-02T06:43:51.620Z,11.10
2022-11-02T06:46:23.755Z,11.59
2022-11-02T06:48:53.946Z,11.71
2022-11-02T06:51:24.398Z,11.38
2022-11-02T06:53:54.561Z,11.70
2022-11-02T06:56:24.889Z,11.50
2022-11-02T06:58:54.808Z,11.65
2022-11-02T07:01:25.275Z,11.58
2022-11-02T07:03:55.261Z,11.44
2022-11-02T07:06:25.667Z,11.41
2022-11-02T07:09:00.841Z,11.23
2022-11-02T07:11:31.791Z,11.64
2022-11-02T07:14:02.058Z,11.29
2022-11-02T07:16:32.647Z,11.39
2022-11-02T07:19:02.827Z,11.34
2022-11-02T07:21:33.364Z,11.17
2022-11-02T07:24:03.381Z,11.51
2022-11-02T07:26:35.002Z,11.35
2022-11-02T07:29:05.339Z,11.41
2022-11-02T07:31:35.998Z,11.30
2022-11-02T07:34:06.209Z,11.35
2022-11-02T07:36:39.160Z,11.49
2022-11-02T07:39:09.573Z,11.55
2022-11-02T07:41:40.256Z,11.65
2022-11-02T07:44:10.484Z,11.34
2022-11-02T07:46:56.097Z,11.33
2022-11-02T07:49:26.538Z,11.36
2022-11-02T07:51:57.446Z,11.68
2022-11-02T07:54:28.050Z,11.47
2022-11-02T07:56:58.750Z,11.42
2022-11-02T07:59:28.972Z,11.86
2022-11-02T08:01:59.836Z,12.03
2022-11-02T08:04:30.256Z,12.00
2022-11-02T08:07:01.008Z,11.72
2022-11-02T08:09:33.300Z,12.15
2022-11-02T08:12:03.999Z,11.80
2022-11-02T08:14:34.286Z,11.58
2022-11-02T08:17:04.960Z,11.48
2022-11-02T08:19:35.218Z,11.39
2022-11-02T08:22:09.100Z,11.54
2022-11-02T08:24:39.324Z,11.73
2022-11-02T08:27:10.092Z,11.47
2022-11-02T08:29:43.233Z,11.69
2022-11-02T08:32:14.858Z,11.48
2022-11-02T08:34:47.711Z,11.58
2022-11-02T08:37:18.465Z,11.65
2022-11-02T08:39:48.957Z,11.44
2022-11-02T08:42:19.708Z,11.75
2022-11-02T08:44:49.905Z,11.61
2022-11-02T08:47:20.759Z,11.82
2022-11-02T08:49:54.689Z,11.53
2022-11-02T08:52:25.500Z,11.57
2022-11-02T08:54:55.738Z,11.53
2022-11-02T08:57:26.576Z,11.95
2022-11-02T08:59:56.773Z,11.56
2022-11-02T09:02:27.717Z,11.80
2022-11-02T09:04:58.016Z,11.84
2022-11-02T09:07:28.394Z,11.93
2022-11-02T09:09:58.596Z,11.71
2022-11-02T09:12:29.358Z,11.83
2022-11-02T09:14:59.662Z,11.74
2022-11-02T09:17:31.337Z,11.80
2022-11-02T09:20:01.577Z,11.80
2022-11-02T09:22:32.895Z,11.97
2022-11-02T09:25:03.330Z,12.20
2022-11-02T09:27:33.449Z,12.09
2022-11-02T09:30:04.837Z,11.69
2022-11-02T09:32:35.898Z,11.62
2022-11-02T09:35:10.133Z,12.55
2022-11-02T09:37:41.101Z,12.96
2022-11-02T09:40:13.767Z,12.74
2022-11-02T09:43:14.329Z,12.84
2022-11-02T09:45:56.020Z,12.54
2022-11-02T09:48:33.593Z,12.44
2022-11-02T09:51:14.215Z,12.58
2022-11-02T09:54:03.207Z,12.40
2022-11-02T09:56:35.979Z,12.77
2022-11-02T09:59:19.593Z,12.50
2022-11-02T10:01:59.009Z,12.57
2022-11-02T10:04:38.156Z,12.64
2022-11-02T10:07:30.830Z,12.69
2022-11-02T10:10:25.767Z,13.33
2022-11-02T10:13:01.945Z,13.07
2022-11-02T10:16:21.326Z,13.33
2022-11-02T10:18:55.439Z,13.43
2022-11-02T10:21:30.513Z,13.59
2022-11-02T10:24:08.451Z,13.98
2022-11-02T10:26:44.508Z,14.37
2022-11-02T10:29:35.371Z,14.78
2022-11-02T10:32:05.721Z,15.22
2022-11-02T10:34:36.079Z,15.51
2022-11-02T10:37:37.522Z,16.05
2022-11-02T10:40:39.727Z,16.06
2022-11-02T10:43:26.156Z,16.54
2022-11-02T10:46:27.683Z,16.79
2022-11-02T10:49:01.436Z,16.88
2022-11-02T10:51:32.837Z,16.91
2022-11-02T10:56:35.076Z,16.89
2022-11-02T10:59:16.099Z,17.66
2022-11-02T11:02:05.434Z,18.54
2022-11-02T11:04:36.925Z,19.15
2022-11-02T11:07:23.048Z,19.64
2022-11-02T11:10:00.076Z,20.25
2022-11-02T11:12:35.534Z,20.81
2022-11-02T11:20:49.895Z,22.38
2022-11-02T11:23:26.309Z,23.02
2022-11-02T11:26:10.711Z,23.00
2022-11-02T11:28:54.235Z,22.54
2022-11-02T11:31:25.757Z,22.02
2022-11-02T11:33:59.644Z,21.54
2022-11-02T11:36:38.154Z,21.54
2022-11-02T11:39:32.236Z,22.55
2022-11-02T11:42:06.130Z,22.26
2022-11-02T11:44:36.691Z,22.63
2022-11-02T11:47:07.327Z,23.50
2022-11-02T11:52:40.864Z,23.04
2022-11-02T11:55:27.163Z,23.77
2022-11-02T11:58:33.691Z,23.39
2022-11-02T12:01:19.437Z,23.27
2022-11-02T12:03:54.491Z,23.60
2022-11-02T12:06:43.974Z,24.34
2022-11-02T12:09:37.070Z,25.48
2022-11-02T12:12:30.480Z,25.60
2022-11-02T12:15:19.853Z,25.60
2022-11-02T12:18:05.737Z,25.58
2022-11-02T12:20:51.787Z,26.50
2022-11-02T12:23:43.234Z,27.00
2022-11-02T12:27:04.717Z,25.93
2022-11-02T12:29:40.781Z,27.00
2022-11-02T12:32:49.838Z,26.38
2022-11-02T12:35:44.611Z,27.46
2022-11-02T12:38:30.241Z,26.35
2022-11-02T12:41:12.244Z,26.66
2022-11-02T12:43:51.577Z,27.21
2022-11-02T12:46:25.268Z,27.21
2022-11-02T12:49:35.583Z,27.46
2022-11-02T12:52:27.595Z,27.69
2022-11-02T12:55:01.858Z,27.87
2022-11-02T12:57:38.032Z,28.78
2022-11-02T13:00:22.216Z,28.40
2022-11-02T13:03:05.204Z,28.34
2022-11-02T13:05:42.855Z,28.51
2022-11-02T13:08:24.461Z,28.92
2022-11-02T13:11:02.327Z,28.16
2022-11-02T13:13:43.625Z,25.87
2022-11-02T13:16:19.642Z,25.89
2022-11-02T13:18:54.378Z,25.01
2022-11-02T13:21:44.341Z,26.43
2022-11-02T13:24:26.439Z,27.83
2022-11-02T13:27:21.905Z,28.99
2022-11-02T13:30:00.314Z,29.18
2022-11-02T13:33:32.070Z,27.04
2022-11-02T13:36:02.234Z,27.93
2022-11-02T13:38:38.222Z,27.86
2022-11-02T13:41:45.532Z,27.84
2022-11-02T13:44:21.799Z,28.00
2022-11-02T13:47:23.920Z,27.85
2022-11-02T13:50:00.291Z,28.85
2022-11-02T13:52:43.576Z,30.02
2022-11-02T13:55:24.599Z,30.18
2022-11-02T13:57:59.335Z,30.46
2022-11-02T14:00:41.847Z,31.83
2022-11-02T14:04:01.708Z,32.30
2022-11-02T14:06:35.791Z,31.70
2022-11-02T14:09:12.287Z,30.49
2022-11-02T14:11:42.850Z,31.38
2022-11-02T14:14:13.069Z,28.82
2022-11-02T14:16:52.495Z,29.59
2022-11-02T14:19:24.451Z,29.17
2022-11-02T14:22:00.814Z,28.11
2022-11-02T14:24:39.578Z,26.73
2022-11-02T14:27:17.751Z,27.41
2022-11-02T14:29:48.074Z,28.28
2022-11-02T14:32:25.262Z,27.88
2022-11-02T14:35:13.618Z,27.27
2022-11-02T14:38:12.702Z,28.70
2022-11-02T14:40:51.836Z,28.72
2022-11-02T14:43:40.605Z,27.27
2022-11-02T14:46:47.262Z,27.10
2022-11-02T14:49:47.258Z,25.72
2022-11-02T14:52:17.486Z,26.71
2022-11-02T14:55:02.179Z,25.61
2022-11-02T14:57:44.355Z,26.57
2022-11-02T15:00:22.429Z,26.31
2022-11-02T15:02:56.637Z,26.82
2022-11-02T15:05:40.061Z,25.94
2022-11-02T15:08:23.495Z,26.28
2022-11-02T15:10:56.235Z,26.51
2022-11-02T15:13:37.329Z,27.49
2022-11-02T15:16:13.958Z,28.83
2022-11-02T15:18:44.198Z,29.30
2022-11-02T15:21:20.664Z,30.12
2022-11-02T15:24:17.077Z,30.38
2022-11-02T15:27:05.003Z,28.88
2022-11-02T15:29:54.508Z,28.34
2022-11-02T15:32:29.330Z,29.91
2022-11-02T15:34:59.610Z,31.08
2022-11-02T15:37:50.440Z,31.80
2022-11-02T15:40:31.320Z,33.06
2022-11-02T15:43:49.643Z,32.86
2022-11-02T15:46:25.971Z,32.92
2022-11-02T15:49:14.415Z,31.46
2022-11-02T15:52:02.851Z,29.91
2022-11-02T15:54:56.229Z,31.37
2022-11-02T15:57:55.567Z,32.59
2022-11-02T16:00:31.375Z,32.53
2022-11-02T16:03:07.221Z,31.52
2022-11-02T16:05:40.925Z,31.33
2022-11-02T16:08:35.260Z,30.18
2022-11-02T16:11:11.750Z,30.35
2022-11-02T16:13:55.951Z,30.68
2022-11-02T16:16:35.829Z,32.79
2022-11-02T16:19:06.269Z,33.86
2022-11-02T16:21:36.733Z,34.62
2022-11-02T16:24:08.042Z,32.79
2022-11-02T16:26:38.544Z,32.24
2022-11-02T16:29:10.309Z,28.97
2022-11-02T16:31:42.062Z,30.03
2022-11-02T16:34:26.772Z,30.25
2022-11-02T16:36:57.729Z,29.91
2022-11-02T16:39:35.702Z,30.73
2022-11-02T16:42:19.155Z,31.38
2022-11-02T16:45:05.245Z,29.17
2022-11-02T16:47:43.710Z,27.43
2022-11-02T16:50:21.474Z,26.41
2022-11-02T16:53:00.470Z,25.56
2022-11-02T16:55:49.889Z,25.21
2022-11-02T16:58:24.433Z,25.35
2022-11-02T17:01:00.915Z,25.00
2022-11-02T17:03:36.050Z,25.21
2022-11-02T17:06:08.423Z,27.62
2022-11-02T17:08:42.322Z,28.51
2022-11-02T17:11:18.244Z,27.38
2022-11-02T17:13:54.201Z,26.43
2022-11-02T17:16:24.336Z,26.56
2022-11-02T17:18:54.155Z,25.60
2022-11-02T17:21:28.348Z,24.57
2022-11-02T17:24:00.320Z,24.97
2022-11-02T17:26:33.985Z,25.70
2022-11-02T17:29:26.904Z,25.86
2022-11-02T17:32:03.172Z,26.21
2022-11-02T17:34:33.638Z,26.89
2022-11-02T17:37:04.337Z,27.90
2022-11-02T17:39:35.547Z,29.40
2022-11-02T17:42:24.316Z,30.09
2022-11-02T17:44:54.313Z,30.43
2022-11-02T17:47:24.174Z,31.53
2022-11-02T17:49:54.606Z,28.82
2022-11-02T17:52:25.136Z,26.66
2022-11-02T17:54:55.630Z,25.78
2022-11-02T17:57:25.675Z,25.37
2022-11-02T17:59:56.582Z,24.12
2022-11-02T18:02:26.740Z,24.06
2022-11-02T18:04:57.541Z,25.64
2022-11-02T18:07:27.823Z,26.86
2022-11-02T18:09:58.359Z,26.20
2022-11-02T18:12:28.211Z,26.33
2022-11-02T18:14:58.667Z,27.56
2022-11-02T18:17:33.937Z,29.14
2022-11-02T18:20:06.289Z,29.52
2022-11-02T18:22:36.593Z,30.44
2022-11-02T18:25:12.740Z,31.27
2022-11-02T18:27:43.498Z,31.58
2022-11-02T18:30:16.791Z,30.81
2022-11-02T18:32:48.184Z,29.87
2022-11-02T18:35:21.636Z,28.66
2022-11-02T18:37:52.736Z,29.08
2022-11-02T18:40:23.376Z,28.21
2022-11-02T18:42:56.421Z,28.01
2022-11-02T18:45:27.347Z,27.77
2022-11-02T18:47:58.364Z,27.68
2022-11-02T18:50:29.000Z,28.19
2022-11-02T18:52:59.510Z,28.45
2022-11-02T18:55:31.492Z,28.99
2022-11-02T18:58:01.751Z,29.65
2022-11-02T19:00:32.259Z,30.52
2022-11-02T19:03:02.258Z,29.56
2022-11-02T19:05:50.999Z,29.72
2022-11-02T19:08:39.654Z,30.13
2022-11-02T19:11:10.342Z,29.89
2022-11-02T19:13:40.518Z,27.58
2022-11-02T19:16:10.951Z,26.37
2022-11-02T19:18:40.900Z,26.65
2022-11-02T19:21:11.368Z,26.54
2022-11-02T19:23:41.363Z,26.55
2022-11-02T19:26:12.025Z,27.22
2022-11-02T19:28:42.228Z,27.63
2022-11-02T19:31:13.025Z,26.53
2022-11-02T19:33:43.248Z,26.25
2022-11-02T19:36:13.774Z,25.89
2022-11-02T19:38:45.300Z,27.03
2022-11-02T19:41:17.778Z,25.49
2022-11-02T19:43:48.403Z,26.92
2022-11-02T19:46:23.745Z,26.20
2022-11-02T19:48:54.528Z,25.62
2022-11-02T19:51:32.983Z,25.15
2022-11-02T19:54:04.114Z,24.88
2022-11-02T19:56:37.460Z,24.28
2022-11-02T19:59:08.165Z,24.15
2022-11-02T20:01:43.659Z,24.66
2022-11-02T20:04:14.057Z,24.54
2022-11-02T20:06:45.951Z,24.00
2022-11-02T20:09:18.901Z,23.94
2022-11-02T20:11:49.866Z,24.28
2022-11-02T20:14:20.443Z,24.16
2022-11-02T20:17:04.132Z,24.10
2022-11-02T20:19:40.882Z,23.77
2022-11-02T20:22:11.515Z,23.46
2022-11-02T20:24:41.773Z,22.34
2022-11-02T20:27:14.124Z,21.99
2022-11-02T20:29:45.420Z,21.66
2022-11-02T20:32:17.081Z,21.90
2022-11-02T20:34:48.168Z,21.76
2022-11-02T20:37:19.038Z,22.07
2022-11-02T20:39:49.339Z,22.34
2022-11-02T20:42:20.508Z,22.40
2022-11-02T20:44:50.994Z,22.42
2022-11-02T20:47:25.038Z,22.16
2022-11-02T20:49:55.305Z,21.96
2022-11-02T20:52:26.030Z,21.99
2022-11-02T20:54:56.402Z,21.78
2022-11-02T20:57:29.497Z,21.51
2022-11-02T21:00:02.760Z,21.27
2022-11-02T21:02:34.235Z,21.15
2022-11-02T21:05:05.966Z,21.22
2022-11-02T21:07:37.274Z,21.07
2022-11-02T21:10:08.848Z,20.81
2022-11-02T21:12:57.806Z,20.68
2022-11-02T21:15:28.079Z,20.48
2022-11-02T21:18:08.103Z,20.29
2022-11-02T21:20:38.349Z,20.18
2022-11-02T21:23:09.411Z,20.06
2022-11-02T21:25:40.088Z,20.02
2022-11-02T21:28:10.823Z,19.88
2022-11-02T21:30:41.021Z,19.77
2022-11-02T21:33:11.712Z,19.62
2022-11-02T21:35:41.948Z,19.56
2022-11-02T21:38:12.630Z,19.46
2022-11-02T21:40:42.270Z,19.36
2022-11-02T21:43:12.268Z,19.15
2022-11-02T21:46:02.063Z,18.85
2022-11-02T21:48:34.924Z,18.64
2022-11-02T21:51:12.811Z,18.48
2022-11-02T21:53:45.043Z,18.41
2022-11-02T21:56:18.037Z,18.23
2022-11-02T21:58:50.413Z,18.06
2022-11-02T22:01:45.524Z,18.04
2022-11-02T22:04:20.615Z,17.98
2022-11-02T22:06:52.461Z,17.88
2022-11-02T22:09:23.497Z,17.80
2022-11-02T22:12:14.713Z,17.80
2022-11-02T22:14:46.221Z,17.74
2022-11-02T22:17:35.492Z,17.62
2022-11-02T22:20:07.701Z,17.24
2022-11-02T22:22:38.445Z,17.41
2022-11-02T22:25:08.970Z,17.26
2022-11-02T22:27:42.264Z,17.19
2022-11-02T22:30:14.382Z,17.08
2022-11-02T22:32:45.110Z,17.02
2022-11-02T22:35:15.483Z,16.90
2022-11-02T22:38:04.405Z,16.64
2022-11-02T22:40:34.649Z,16.55
2022-11-02T22:43:05.718Z,16.50
2022-11-02T22:45:36.261Z,16.24
2022-11-02T22:48:07.196Z,16.11
2022-11-02T22:50:37.008Z,15.99
2022-11-02T22:53:07.183Z,15.91
2022-11-02T22:55:38.196Z,15.88
2022-11-02T22:58:08.464Z,15.89
2022-11-02T23:00:40.066Z,15.99
2022-11-02T23:03:10.386Z,15.90
2022-11-02T23:05:41.123Z,15.96
2022-11-02T23:08:11.757Z,15.88
2022-11-02T23:11:00.918Z,15.91
2022-11-02T23:13:31.302Z,15.88
2022-11-02T23:16:22.878Z,15.79
2022-11-02T23:19:12.469Z,15.76
2022-11-02T23:21:51.867Z,15.71
2022-11-02T23:24:40.028Z,15.63
2022-11-02T23:27:10.789Z,15.49
2022-11-02T23:29:59.527Z,15.41
2022-11-02T23:32:30.321Z,15.30
2022-11-02T23:35:19.329Z,15.20
2022-11-02T23:37:50.204Z,15.14
2022-11-02T23:40:20.772Z,15.02
2022-11-02T23:42:51.501Z,15.05
2022-11-02T23:45:24.671Z,15.11
2022-11-02T23:47:58.413Z,15.29
2022-11-02T23:50:49.855Z,15.38
2022-11-02T23:53:42.348Z,15.31
2022-11-02T23:56:35.738Z,15.42
2022-11-02T23:59:09.813Z,15.32
